sensor_id;sensor_type;location;lat;lon;timestamp;P1;durP1;ratioP1;P2;durP2;ratioP2
27612;SDS011;15036;48.094;-1.690;2023-05-14T00:01:43;48.10;;;35.97;;
27612;SDS011;15036;48.094;-1.690;2023-05-14T00:04:10;53.13;;;37.78;;
27612;SDS011;15036;48.094;-1.690;2023-05-14T00:06:36;54.17;;;36.10;;
27612;SDS011;15036;48.094;-1.690;2023-05-14T00:09:01;54.60;;;37.80;;
27612;SDS011;15036;48.094;-1.690;2023-05-14T00:11:28;54.67;;;38.35;;
27612;SDS011;15036;48.094;-1.690;2023-05-14T00:13:53;57.60;;;38.75;;
27612;SDS011;15036;48.094;-1.690;2023-05-14T00:16:20;53.88;;;37.83;;
27612;SDS011;15036;48.094;-1.690;2023-05-14T00:18:47;54.13;;;38.88;;
27612;SDS011;15036;48.094;-1.690;2023-05-14T00:21:12;55.30;;;38.08;;
27612;SDS011;15036;48.094;-1.690;2023-05-14T00:23:38;54.60;;;38.95;;
27612;SDS011;15036;48.094;-1.690;2023-05-14T00:26:04;53.38;;;39.03;;
27612;SDS011;15036;48.094;-1.690;2023-05-14T00:28:29;55.10;;;38.83;;
27612;SDS011;15036;48.094;-1.690;2023-05-14T00:30:54;53.50;;;37.78;;
27612;SDS011;15036;48.094;-1.690;2023-05-14T00:33:21;50.63;;;38.25;;
27612;SDS011;15036;48.094;-1.690;2023-05-14T00:35:47;49.20;;;38.40;;
27612;SDS011;15036;48.094;-1.690;2023-05-14T00:38:13;53.75;;;39.22;;
27612;SDS011;15036;48.094;-1.690;2023-05-14T00:40:44;49.72;;;37.42;;
27612;SDS011;15036;48.094;-1.690;2023-05-14T00:43:15;50.13;;;37.30;;
27612;SDS011;15036;48.094;-1.690;2023-05-14T00:45:44;49.17;;;37.55;;
27612;SDS011;15036;48.094;-1.690;2023-05-14T00:48:10;56.10;;;38.95;;
27612;SDS011;15036;48.094;-1.690;2023-05-14T00:50:36;59.08;;;39.70;;
27612;SDS011;15036;48.094;-1.690;2023-05-14T00:53:02;52.55;;;38.30;;
27612;SDS011;15036;48.094;-1.690;2023-05-14T00:55:28;58.88;;;39.78;;
27612;SDS011;15036;48.094;-1.690;2023-05-14T00:57:54;54.13;;;38.50;;
27612;SDS011;15036;48.094;-1.690;2023-05-14T01:00:21;52.97;;;38.35;;
27612;SDS011;15036;48.094;-1.690;2023-05-14T01:02:47;53.20;;;39.00;;
27612;SDS011;15036;48.094;-1.690;2023-05-14T01:05:12;52.75;;;38.28;;
27612;SDS011;15036;48.094;-1.690;2023-05-14T01:10:28;52.17;;;39.25;;
27612;SDS011;15036;48.094;-1.690;2023-05-14T01:15:46;54.83;;;39.35;;
27612;SDS011;15036;48.094;-1.690;2023-05-14T01:18:13;51.47;;;39.22;;
27612;SDS011;15036;48.094;-1.690;2023-05-14T01:20:43;52.17;;;38.05;;
27612;SDS011;15036;48.094;-1.690;2023-05-14T01:23:13;51.13;;;38.78;;
27612;SDS011;15036;48.094;-1.690;2023-05-14T01:25:39;51.10;;;38.95;;
27612;SDS011;15036;48.094;-1.690;2023-05-14T01:31:22;51.42;;;38.05;;
27612;SDS011;15036;48.094;-1.690;2023-05-14T01:33:30;53.13;;;38.67;;
27612;SDS011;15036;48.094;-1.690;2023-05-14T01:35:57;51.22;;;37.13;;
27612;SDS011;15036;48.094;-1.690;2023-05-14T01:38:23;52.70;;;38.08;;
27612;SDS011;15036;48.094;-1.690;2023-05-14T01:40:51;49.45;;;37.13;;
27612;SDS011;15036;48.094;-1.690;2023-05-14T01:43:18;51.85;;;37.22;;
27612;SDS011;15036;48.094;-1.690;2023-05-14T01:45:44;50.05;;;38.67;;
27612;SDS011;15036;48.094;-1.690;2023-05-14T01:48:10;56.45;;;39.17;;
27612;SDS011;15036;48.094;-1.690;2023-05-14T01:50:35;54.90;;;39.10;;
27612;SDS011;15036;48.094;-1.690;2023-05-14T01:53:01;62.05;;;39.67;;
27612;SDS011;15036;48.094;-1.690;2023-05-14T01:55:26;55.53;;;41.17;;
27612;SDS011;15036;48.094;-1.690;2023-05-14T01:57:52;55.83;;;39.15;;
27612;SDS011;15036;48.094;-1.690;2023-05-14T02:00:18;53.80;;;39.30;;
27612;SDS011;15036;48.094;-1.690;2023-05-14T02:02:44;55.33;;;38.50;;
27612;SDS011;15036;48.094;-1.690;2023-05-14T02:05:10;58.45;;;41.13;;
27612;SDS011;15036;48.094;-1.690;2023-05-14T02:07:35;53.47;;;39.72;;
27612;SDS011;15036;48.094;-1.690;2023-05-14T02:10:01;55.97;;;39.42;;
27612;SDS011;15036;48.094;-1.690;2023-05-14T02:12:26;54.42;;;39.35;;
27612;SDS011;15036;48.094;-1.690;2023-05-14T02:14:51;57.70;;;39.92;;
27612;SDS011;15036;48.094;-1.690;2023-05-14T02:17:17;48.42;;;38.30;;
27612;SDS011;15036;48.094;-1.690;2023-05-14T02:19:43;58.28;;;39.80;;
27612;SDS011;15036;48.094;-1.690;2023-05-14T02:22:08;53.53;;;38.53;;
27612;SDS011;15036;48.094;-1.690;2023-05-14T02:24:34;57.00;;;39.45;;
27612;SDS011;15036;48.094;-1.690;2023-05-14T02:26:59;55.95;;;39.30;;
27612;SDS011;15036;48.094;-1.690;2023-05-14T02:29:25;56.30;;;40.38;;
27612;SDS011;15036;48.094;-1.690;2023-05-14T02:31:55;52.10;;;38.42;;
27612;SDS011;15036;48.094;-1.690;2023-05-14T02:34:20;54.67;;;38.60;;
27612;SDS011;15036;48.094;-1.690;2023-05-14T02:36:46;52.80;;;39.17;;
27612;SDS011;15036;48.094;-1.690;2023-05-14T02:39:11;54.92;;;38.17;;
27612;SDS011;15036;48.094;-1.690;2023-05-14T02:41:37;57.17;;;39.97;;
27612;SDS011;15036;48.094;-1.690;2023-05-14T02:44:02;54.50;;;39.03;;
27612;SDS011;15036;48.094;-1.690;2023-05-14T02:46:27;57.83;;;38.75;;
27612;SDS011;15036;48.094;-1.690;2023-05-14T02:48:54;57.70;;;39.65;;
27612;SDS011;15036;48.094;-1.690;2023-05-14T02:51:20;55.88;;;41.25;;
27612;SDS011;15036;48.094;-1.690;2023-05-14T02:53:45;56.92;;;41.28;;
27612;SDS011;15036;48.094;-1.690;2023-05-14T02:56:11;50.83;;;38.22;;
27612;SDS011;15036;48.094;-1.690;2023-05-14T02:58:36;54.25;;;39.72;;
27612;SDS011;15036;48.094;-1.690;2023-05-14T03:01:02;56.70;;;40.97;;
27612;SDS011;15036;48.094;-1.690;2023-05-14T03:03:28;54.10;;;40.00;;
27612;SDS011;15036;48.094;-1.690;2023-05-14T03:05:54;54.08;;;39.72;;
27612;SDS011;15036;48.094;-1.690;2023-05-14T03:08:19;56.17;;;40.60;;
27612;SDS011;15036;48.094;-1.690;2023-05-14T03:10:44;54.30;;;39.88;;
27612;SDS011;15036;48.094;-1.690;2023-05-14T03:13:10;57.75;;;40.38;;
27612;SDS011;15036;48.094;-1.690;2023-05-14T03:15:35;52.13;;;40.53;;
27612;SDS011;15036;48.094;-1.690;2023-05-14T03:18:00;53.00;;;39.47;;
27612;SDS011;15036;48.094;-1.690;2023-05-14T03:20:26;50.17;;;38.15;;
27612;SDS011;15036;48.094;-1.690;2023-05-14T03:22:51;54.08;;;40.13;;
27612;SDS011;15036;48.094;-1.690;2023-05-14T03:25:18;57.97;;;40.85;;
27612;SDS011;15036;48.094;-1.690;2023-05-14T03:27:43;55.70;;;39.58;;
27612;SDS011;15036;48.094;-1.690;2023-05-14T03:30:09;55.53;;;39.92;;
27612;SDS011;15036;48.094;-1.690;2023-05-14T03:32:35;52.67;;;39.35;;
27612;SDS011;15036;48.094;-1.690;2023-05-14T03:35:01;55.33;;;40.22;;
27612;SDS011;15036;48.094;-1.690;2023-05-14T03:37:26;54.80;;;39.67;;
27612;SDS011;15036;48.094;-1.690;2023-05-14T03:39:52;53.88;;;39.88;;
27612;SDS011;15036;48.094;-1.690;2023-05-14T03:42:17;56.25;;;39.70;;
27612;SDS011;15036;48.094;-1.690;2023-05-14T03:44:42;52.67;;;38.65;;
27612;SDS011;15036;48.094;-1.690;2023-05-14T03:47:08;53.20;;;39.75;;
27612;SDS011;15036;48.094;-1.690;2023-05-14T03:49:33;54.05;;;39.17;;
27612;SDS011;15036;48.094;-1.690;2023-05-14T03:51:59;56.70;;;39.35;;
27612;SDS011;15036;48.094;-1.690;2023-05-14T03:54:24;54.47;;;38.03;;
27612;SDS011;15036;48.094;-1.690;2023-05-14T03:56:50;54.90;;;37.75;;
27612;SDS011;15036;48.094;-1.690;2023-05-14T03:59:16;57.35;;;39.08;;
27612;SDS011;15036;48.094;-1.690;2023-05-14T04:01:42;57.97;;;39.78;;
27612;SDS011;15036;48.094;-1.690;2023-05-14T04:04:08;55.38;;;38.33;;
27612;SDS011;15036;48.094;-1.690;2023-05-14T04:06:33;58.30;;;39.38;;
27612;SDS011;15036;48.094;-1.690;2023-05-14T04:08:58;55.67;;;38.22;;
27612;SDS011;15036;48.094;-1.690;2023-05-14T04:11:24;55.72;;;38.88;;
27612;SDS011;15036;48.094;-1.690;2023-05-14T04:13:49;56.70;;;39.22;;
27612;SDS011;15036;48.094;-1.690;2023-05-14T04:16:14;57.28;;;40.15;;
27612;SDS011;15036;48.094;-1.690;2023-05-14T04:18:40;56.03;;;38.38;;
27612;SDS011;15036;48.094;-1.690;2023-05-14T04:21:06;59.03;;;39.63;;
27612;SDS011;15036;48.094;-1.690;2023-05-14T04:23:32;59.75;;;41.03;;
27612;SDS011;15036;48.094;-1.690;2023-05-14T04:25:57;54.72;;;39.75;;
27612;SDS011;15036;48.094;-1.690;2023-05-14T04:28:24;58.97;;;39.42;;
27612;SDS011;15036;48.094;-1.690;2023-05-14T04:30:49;61.47;;;39.67;;
27612;SDS011;15036;48.094;-1.690;2023-05-14T04:33:15;54.15;;;40.20;;
27612;SDS011;15036;48.094;-1.690;2023-05-14T04:35:40;61.70;;;39.47;;
27612;SDS011;15036;48.094;-1.690;2023-05-14T04:38:05;60.30;;;40.90;;
27612;SDS011;15036;48.094;-1.690;2023-05-14T04:40:31;60.85;;;40.85;;
27612;SDS011;15036;48.094;-1.690;2023-05-14T04:42:56;61.58;;;40.30;;
27612;SDS011;15036;48.094;-1.690;2023-05-14T04:45:22;54.60;;;38.55;;
27612;SDS011;15036;48.094;-1.690;2023-05-14T04:47:47;59.75;;;40.40;;
27612;SDS011;15036;48.094;-1.690;2023-05-14T04:50:13;60.65;;;39.28;;
27612;SDS011;15036;48.094;-1.690;2023-05-14T04:52:38;59.88;;;39.33;;
27612;SDS011;15036;48.094;-1.690;2023-05-14T04:55:04;56.20;;;38.60;;
27612;SDS011;15036;48.094;-1.690;2023-05-14T04:57:30;56.72;;;39.40;;
27612;SDS011;15036;48.094;-1.690;2023-05-14T04:59:55;59.17;;;39.38;;
27612;SDS011;15036;48.094;-1.690;2023-05-14T05:02:21;59.53;;;40.50;;
27612;SDS011;15036;48.094;-1.690;2023-05-14T05:04:46;62.85;;;39.88;;
27612;SDS011;15036;48.094;-1.690;2023-05-14T05:07:11;61.10;;;39.80;;
27612;SDS011;15036;48.094;-1.690;2023-05-14T05:09:37;58.53;;;38.58;;
27612;SDS011;15036;48.094;-1.690;2023-05-14T05:12:03;59.25;;;39.35;;
27612;SDS011;15036;48.094;-1.690;2023-05-14T05:14:28;56.45;;;40.15;;
27612;SDS011;15036;48.094;-1.690;2023-05-14T05:16:54;59.85;;;40.22;;
27612;SDS011;15036;48.094;-1.690;2023-05-14T05:19:19;61.53;;;39.00;;
27612;SDS011;15036;48.094;-1.690;2023-05-14T05:21:45;59.70;;;39.03;;
27612;SDS011;15036;48.094;-1.690;2023-05-14T05:24:10;58.53;;;39.45;;
27612;SDS011;15036;48.094;-1.690;2023-05-14T05:26:37;55.83;;;39.97;;
27612;SDS011;15036;48.094;-1.690;2023-05-14T05:29:03;56.97;;;40.30;;
27612;SDS011;15036;48.094;-1.690;2023-05-14T05:31:29;59.88;;;39.35;;
27612;SDS011;15036;48.094;-1.690;2023-05-14T05:33:55;61.83;;;39.63;;
27612;SDS011;15036;48.094;-1.690;2023-05-14T05:36:20;57.53;;;40.33;;
27612;SDS011;15036;48.094;-1.690;2023-05-14T05:38:45;62.78;;;40.97;;
27612;SDS011;15036;48.094;-1.690;2023-05-14T05:41:11;59.90;;;40.58;;
27612;SDS011;15036;48.094;-1.690;2023-05-14T05:43:36;58.03;;;39.38;;
27612;SDS011;15036;48.094;-1.690;2023-05-14T05:46:02;66.20;;;40.55;;
27612;SDS011;15036;48.094;-1.690;2023-05-14T05:48:27;59.90;;;41.38;;
27612;SDS011;15036;48.094;-1.690;2023-05-14T05:50:52;61.25;;;40.78;;
27612;SDS011;15036;48.094;-1.690;2023-05-14T05:53:18;59.78;;;39.95;;
27612;SDS011;15036;48.094;-1.690;2023-05-14T05:55:43;62.13;;;40.28;;
27612;SDS011;15036;48.094;-1.690;2023-05-14T05:58:09;57.00;;;38.30;;
27612;SDS011;15036;48.094;-1.690;2023-05-14T06:00:34;55.97;;;38.33;;
27612;SDS011;15036;48.094;-1.690;2023-05-14T06:03:00;59.63;;;39.20;;
27612;SDS011;15036;48.094;-1.690;2023-05-14T06:05:25;54.35;;;37.80;;
27612;SDS011;15036;48.094;-1.690;2023-05-14T06:07:51;54.30;;;37.80;;
27612;SDS011;15036;48.094;-1.690;2023-05-14T06:10:17;55.50;;;37.97;;
27612;SDS011;15036;48.094;-1.690;2023-05-14T06:12:43;54.33;;;37.65;;
27612;SDS011;15036;48.094;-1.690;2023-05-14T06:15:09;52.55;;;36.95;;
27612;SDS011;15036;48.094;-1.690;2023-05-14T06:17:36;55.67;;;38.03;;
27612;SDS011;15036;48.094;-1.690;2023-05-14T06:20:01;58.30;;;38.22;;
27612;SDS011;15036;48.094;-1.690;2023-05-14T06:22:29;52.80;;;36.58;;
27612;SDS011;15036;48.094;-1.690;2023-05-14T06:24:54;55.10;;;37.08;;
27612;SDS011;15036;48.094;-1.690;2023-05-14T06:27:20;56.50;;;38.15;;
27612;SDS011;15036;48.094;-1.690;2023-05-14T06:29:45;53.97;;;37.25;;
27612;SDS011;15036;48.094;-1.690;2023-05-14T06:32:10;52.17;;;37.55;;
27612;SDS011;15036;48.094;-1.690;2023-05-14T06:34:39;56.75;;;37.95;;
27612;SDS011;15036;48.094;-1.690;2023-05-14T06:37:05;53.35;;;35.17;;
27612;SDS011;15036;48.094;-1.690;2023-05-14T06:39:31;52.67;;;36.63;;
27612;SDS011;15036;48.094;-1.690;2023-05-14T06:41:56;50.10;;;35.08;;
27612;SDS011;15036;48.094;-1.690;2023-05-14T06:44:23;49.35;;;35.90;;
27612;SDS011;15036;48.094;-1.690;2023-05-14T06:46:48;49.30;;;34.88;;
27612;SDS011;15036;48.094;-1.690;2023-05-14T06:49:14;48.85;;;34.85;;
27612;SDS011;15036;48.094;-1.690;2023-05-14T06:51:40;45.17;;;34.28;;
27612;SDS011;15036;48.094;-1.690;2023-05-14T06:54:06;46.90;;;35.22;;
27612;SDS011;15036;48.094;-1.690;2023-05-14T06:56:31;45.08;;;34.00;;
27612;SDS011;15036;48.094;-1.690;2023-05-14T06:58:56;48.47;;;34.22;;
27612;SDS011;15036;48.094;-1.690;2023-05-14T07:01:22;48.83;;;34.85;;
27612;SDS011;15036;48.094;-1.690;2023-05-14T07:03:48;46.33;;;33.00;;
27612;SDS011;15036;48.094;-1.690;2023-05-14T07:06:14;42.28;;;32.70;;
27612;SDS011;15036;48.094;-1.690;2023-05-14T07:08:42;54.63;;;38.72;;
27612;SDS011;15036;48.094;-1.690;2023-05-14T07:11:10;42.60;;;31.13;;
27612;SDS011;15036;48.094;-1.690;2023-05-14T07:13:35;42.92;;;32.10;;
27612;SDS011;15036;48.094;-1.690;2023-05-14T07:16:01;43.83;;;33.40;;
27612;SDS011;15036;48.094;-1.690;2023-05-14T07:18:26;47.25;;;33.33;;
27612;SDS011;15036;48.094;-1.690;2023-05-14T07:20:52;41.83;;;33.33;;
27612;SDS011;15036;48.094;-1.690;2023-05-14T07:23:17;46.50;;;33.03;;
27612;SDS011;15036;48.094;-1.690;2023-05-14T07:25:43;44.58;;;33.15;;
27612;SDS011;15036;48.094;-1.690;2023-05-14T07:28:08;40.65;;;32.20;;
27612;SDS011;15036;48.094;-1.690;2023-05-14T07:30:33;40.90;;;30.38;;
27612;SDS011;15036;48.094;-1.690;2023-05-14T07:32:59;43.47;;;33.72;;
27612;SDS011;15036;48.094;-1.690;2023-05-14T07:35:24;44.80;;;32.60;;
27612;SDS011;15036;48.094;-1.690;2023-05-14T07:37:50;41.95;;;31.90;;
27612;SDS011;15036;48.094;-1.690;2023-05-14T07:40:15;45.47;;;31.42;;
27612;SDS011;15036;48.094;-1.690;2023-05-14T07:42:40;54.00;;;40.42;;
27612;SDS011;15036;48.094;-1.690;2023-05-14T07:45:06;43.92;;;34.95;;
27612;SDS011;15036;48.094;-1.690;2023-05-14T07:47:33;38.25;;;29.88;;
27612;SDS011;15036;48.094;-1.690;2023-05-14T07:49:59;42.42;;;30.98;;
27612;SDS011;15036;48.094;-1.690;2023-05-14T07:52:24;40.47;;;30.65;;
27612;SDS011;15036;48.094;-1.690;2023-05-14T07:54:50;38.13;;;29.15;;
27612;SDS011;15036;48.094;-1.690;2023-05-14T07:57:16;40.38;;;31.02;;
27612;SDS011;15036;48.094;-1.690;2023-05-14T07:59:42;38.53;;;29.38;;
27612;SDS011;15036;48.094;-1.690;2023-05-14T08:02:07;36.60;;;29.00;;
27612;SDS011;15036;48.094;-1.690;2023-05-14T08:04:37;35.80;;;29.70;;
27612;SDS011;15036;48.094;-1.690;2023-05-14T08:07:03;36.20;;;27.98;;
27612;SDS011;15036;48.094;-1.690;2023-05-14T08:09:29;33.28;;;28.27;;
27612;SDS011;15036;48.094;-1.690;2023-05-14T08:11:55;37.53;;;29.33;;
27612;SDS011;15036;48.094;-1.690;2023-05-14T08:14:20;36.70;;;28.60;;
27612;SDS011;15036;48.094;-1.690;2023-05-14T08:16:46;35.03;;;28.20;;
27612;SDS011;15036;48.094;-1.690;2023-05-14T08:19:11;33.78;;;27.98;;
27612;SDS011;15036;48.094;-1.690;2023-05-14T08:21:37;32.00;;;27.60;;
27612;SDS011;15036;48.094;-1.690;2023-05-14T08:24:02;34.85;;;28.02;;
27612;SDS011;15036;48.094;-1.690;2023-05-14T08:26:28;34.92;;;27.48;;
27612;SDS011;15036;48.094;-1.690;2023-05-14T08:28:53;32.28;;;26.65;;
27612;SDS011;15036;48.094;-1.690;2023-05-14T08:31:19;33.05;;;25.88;;
27612;SDS011;15036;48.094;-1.690;2023-05-14T08:33:44;31.35;;;25.85;;
27612;SDS011;15036;48.094;-1.690;2023-05-14T08:36:10;38.17;;;26.00;;
27612;SDS011;15036;48.094;-1.690;2023-05-14T08:38:35;30.55;;;24.80;;
27612;SDS011;15036;48.094;-1.690;2023-05-14T08:41:00;32.42;;;26.05;;
27612;SDS011;15036;48.094;-1.690;2023-05-14T08:43:36;30.05;;;24.42;;
27612;SDS011;15036;48.094;-1.690;2023-05-14T08:46:17;30.63;;;25.73;;
27612;SDS011;15036;48.094;-1.690;2023-05-14T08:48:47;31.27;;;25.73;;
27612;SDS011;15036;48.094;-1.690;2023-05-14T08:51:21;28.85;;;24.27;;
27612;SDS011;15036;48.094;-1.690;2023-05-14T08:53:47;29.20;;;24.70;;
27612;SDS011;15036;48.094;-1.690;2023-05-14T08:56:13;29.17;;;24.67;;
27612;SDS011;15036;48.094;-1.690;2023-05-14T08:58:42;30.38;;;24.85;;
27612;SDS011;15036;48.094;-1.690;2023-05-14T09:01:07;28.45;;;24.52;;
27612;SDS011;15036;48.094;-1.690;2023-05-14T09:03:33;27.80;;;23.55;;
27612;SDS011;15036;48.094;-1.690;2023-05-14T09:06:00;29.35;;;22.67;;
27612;SDS011;15036;48.094;-1.690;2023-05-14T09:08:26;29.15;;;24.60;;
27612;SDS011;15036;48.094;-1.690;2023-05-14T09:10:52;25.77;;;22.50;;
27612;SDS011;15036;48.094;-1.690;2023-05-14T09:13:17;31.50;;;26.27;;
27612;SDS011;15036;48.094;-1.690;2023-05-14T09:15:44;30.10;;;24.23;;
27612;SDS011;15036;48.094;-1.690;2023-05-14T09:18:10;26.58;;;22.95;;
27612;SDS011;15036;48.094;-1.690;2023-05-14T09:20:36;29.60;;;24.60;;
27612;SDS011;15036;48.094;-1.690;2023-05-14T09:23:02;27.08;;;24.10;;
27612;SDS011;15036;48.094;-1.690;2023-05-14T09:25:31;29.15;;;24.00;;
27612;SDS011;15036;48.094;-1.690;2023-05-14T09:27:56;27.10;;;21.50;;
27612;SDS011;15036;48.094;-1.690;2023-05-14T09:30:22;25.25;;;22.25;;
27612;SDS011;15036;48.094;-1.690;2023-05-14T09:32:48;25.58;;;22.60;;
27612;SDS011;15036;48.094;-1.690;2023-05-14T09:35:20;25.35;;;22.13;;
27612;SDS011;15036;48.094;-1.690;2023-05-14T09:37:48;23.73;;;21.20;;
27612;SDS011;15036;48.094;-1.690;2023-05-14T09:40:15;24.08;;;20.95;;
27612;SDS011;15036;48.094;-1.690;2023-05-14T09:42:42;25.25;;;20.55;;
27612;SDS011;15036;48.094;-1.690;2023-05-14T09:45:08;26.48;;;23.60;;
27612;SDS011;15036;48.094;-1.690;2023-05-14T09:47:34;24.42;;;20.77;;
27612;SDS011;15036;48.094;-1.690;2023-05-14T09:50:00;21.80;;;19.50;;
27612;SDS011;15036;48.094;-1.690;2023-05-14T09:52:25;25.83;;;20.38;;
27612;SDS011;15036;48.094;-1.690;2023-05-14T09:54:51;23.15;;;20.17;;
27612;SDS011;15036;48.094;-1.690;2023-05-14T09:57:17;23.13;;;20.73;;
27612;SDS011;15036;48.094;-1.690;2023-05-14T09:59:43;24.08;;;19.60;;
27612;SDS011;15036;48.094;-1.690;2023-05-14T10:02:11;22.55;;;19.85;;
27612;SDS011;15036;48.094;-1.690;2023-05-14T10:04:43;24.23;;;20.55;;
27612;SDS011;15036;48.094;-1.690;2023-05-14T10:07:10;21.75;;;19.42;;
27612;SDS011;15036;48.094;-1.690;2023-05-14T10:09:36;20.25;;;18.05;;
27612;SDS011;15036;48.094;-1.690;2023-05-14T10:12:07;20.92;;;18.55;;
27612;SDS011;15036;48.094;-1.690;2023-05-14T10:14:34;22.55;;;18.77;;
27612;SDS011;15036;48.094;-1.690;2023-05-14T10:17:07;22.48;;;19.77;;
27612;SDS011;15036;48.094;-1.690;2023-05-14T10:19:41;21.08;;;18.70;;
27612;SDS011;15036;48.094;-1.690;2023-05-14T10:22:11;19.90;;;17.67;;
27612;SDS011;15036;48.094;-1.690;2023-05-14T10:24:39;19.92;;;17.88;;
27612;SDS011;15036;48.094;-1.690;2023-05-14T10:27:05;20.58;;;16.77;;
27612;SDS011;15036;48.094;-1.690;2023-05-14T10:29:34;18.50;;;16.55;;
27612;SDS011;15036;48.094;-1.690;2023-05-14T10:32:05;18.98;;;16.80;;
27612;SDS011;15036;48.094;-1.690;2023-05-14T10:36:58;19.35;;;15.55;;
27612;SDS011;15036;48.094;-1.690;2023-05-14T10:39:38;20.85;;;18.50;;
27612;SDS011;15036;48.094;-1.690;2023-05-14T10:44:52;22.90;;;19.13;;
27612;SDS011;15036;48.094;-1.690;2023-05-14T10:47:25;21.02;;;18.13;;
27612;SDS011;15036;48.094;-1.690;2023-05-14T10:49:55;22.13;;;18.77;;
27612;SDS011;15036;48.094;-1.690;2023-05-14T10:52:22;19.23;;;17.13;;
27612;SDS011;15036;48.094;-1.690;2023-05-14T10:54:56;18.48;;;16.38;;
27612;SDS011;15036;48.094;-1.690;2023-05-14T10:57:24;18.70;;;15.52;;
27612;SDS011;15036;48.094;-1.690;2023-05-14T10:59:52;16.77;;;14.98;;
27612;SDS011;15036;48.094;-1.690;2023-05-14T11:04:57;20.00;;;17.42;;
27612;SDS011;15036;48.094;-1.690;2023-05-14T11:09:58;21.15;;;16.70;;
27612;SDS011;15036;48.094;-1.690;2023-05-14T11:12:25;20.55;;;18.08;;
27612;SDS011;15036;48.094;-1.690;2023-05-14T11:14:52;17.88;;;15.85;;
27612;SDS011;15036;48.094;-1.690;2023-05-14T11:17:17;17.10;;;15.40;;
27612;SDS011;15036;48.094;-1.690;2023-05-14T11:19:43;16.38;;;14.60;;
27612;SDS011;15036;48.094;-1.690;2023-05-14T11:22:09;16.00;;;13.65;;
27612;SDS011;15036;48.094;-1.690;2023-05-14T11:24:37;15.63;;;14.02;;
27612;SDS011;15036;48.094;-1.690;2023-05-14T11:27:03;18.48;;;15.95;;
27612;SDS011;15036;48.094;-1.690;2023-05-14T11:29:29;17.35;;;15.57;;
27612;SDS011;15036;48.094;-1.690;2023-05-14T11:31:54;18.67;;;15.93;;
27612;SDS011;15036;48.094;-1.690;2023-05-14T11:34:20;17.42;;;15.73;;
27612;SDS011;15036;48.094;-1.690;2023-05-14T11:36:46;15.57;;;13.88;;
27612;SDS011;15036;48.094;-1.690;2023-05-14T11:39:16;16.23;;;14.35;;
27612;SDS011;15036;48.094;-1.690;2023-05-14T11:41:43;19.40;;;16.77;;
27612;SDS011;15036;48.094;-1.690;2023-05-14T11:44:09;18.83;;;16.67;;
27612;SDS011;15036;48.094;-1.690;2023-05-14T11:46:35;18.52;;;16.27;;
27612;SDS011;15036;48.094;-1.690;2023-05-14T11:49:02;19.40;;;17.40;;
27612;SDS011;15036;48.094;-1.690;2023-05-14T11:51:28;20.65;;;16.33;;
27612;SDS011;15036;48.094;-1.690;2023-05-14T11:53:53;19.27;;;16.83;;
27612;SDS011;15036;48.094;-1.690;2023-05-14T11:56:20;17.27;;;15.50;;
27612;SDS011;15036;48.094;-1.690;2023-05-14T11:58:47;18.58;;;15.15;;
27612;SDS011;15036;48.094;-1.690;2023-05-14T12:01:13;16.85;;;15.15;;
27612;SDS011;15036;48.094;-1.690;2023-05-14T12:03:39;16.77;;;15.05;;
27612;SDS011;15036;48.094;-1.690;2023-05-14T12:06:06;16.13;;;14.52;;
27612;SDS011;15036;48.094;-1.690;2023-05-14T12:08:34;15.18;;;13.63;;
27612;SDS011;15036;48.094;-1.690;2023-05-14T12:11:01;18.80;;;16.85;;
27612;SDS011;15036;48.094;-1.690;2023-05-14T12:13:30;16.02;;;14.48;;
27612;SDS011;15036;48.094;-1.690;2023-05-14T12:15:57;19.73;;;15.32;;
27612;SDS011;15036;48.094;-1.690;2023-05-14T12:18:24;16.52;;;14.80;;
27612;SDS011;15036;48.094;-1.690;2023-05-14T12:20:52;16.90;;;14.85;;
27612;SDS011;15036;48.094;-1.690;2023-05-14T12:23:28;17.73;;;14.32;;
27612;SDS011;15036;48.094;-1.690;2023-05-14T12:26:09;16.92;;;14.75;;
27612;SDS011;15036;48.094;-1.690;2023-05-14T12:28:37;18.48;;;16.58;;
27612;SDS011;15036;48.094;-1.690;2023-05-14T12:31:07;17.95;;;16.10;;
27612;SDS011;15036;48.094;-1.690;2023-05-14T12:33:32;16.88;;;14.98;;
27612;SDS011;15036;48.094;-1.690;2023-05-14T12:35:58;16.77;;;15.07;;
27612;SDS011;15036;48.094;-1.690;2023-05-14T12:38:26;16.70;;;14.90;;
27612;SDS011;15036;48.094;-1.690;2023-05-14T12:40:52;16.48;;;14.82;;
27612;SDS011;15036;48.094;-1.690;2023-05-14T12:43:18;18.35;;;14.32;;
27612;SDS011;15036;48.094;-1.690;2023-05-14T12:45:43;13.98;;;12.57;;
27612;SDS011;15036;48.094;-1.690;2023-05-14T12:48:09;15.65;;;13.95;;
27612;SDS011;15036;48.094;-1.690;2023-05-14T12:50:35;14.90;;;13.30;;
27612;SDS011;15036;48.094;-1.690;2023-05-14T12:53:00;14.30;;;12.90;;
27612;SDS011;15036;48.094;-1.690;2023-05-14T12:55:25;14.55;;;13.10;;
27612;SDS011;15036;48.094;-1.690;2023-05-14T12:57:51;13.57;;;12.18;;
27612;SDS011;15036;48.094;-1.690;2023-05-14T13:00:16;14.25;;;12.85;;
27612;SDS011;15036;48.094;-1.690;2023-05-14T13:02:42;13.15;;;11.85;;
27612;SDS011;15036;48.094;-1.690;2023-05-14T13:05:07;14.98;;;13.13;;
27612;SDS011;15036;48.094;-1.690;2023-05-14T13:07:33;14.18;;;12.63;;
27612;SDS011;15036;48.094;-1.690;2023-05-14T13:10:00;14.25;;;12.77;;
27612;SDS011;15036;48.094;-1.690;2023-05-14T13:12:27;16.05;;;14.35;;
27612;SDS011;15036;48.094;-1.690;2023-05-14T13:14:53;14.45;;;12.52;;
27612;SDS011;15036;48.094;-1.690;2023-05-14T13:17:18;15.48;;;13.88;;
27612;SDS011;15036;48.094;-1.690;2023-05-14T13:19:43;14.02;;;12.52;;
27612;SDS011;15036;48.094;-1.690;2023-05-14T13:22:09;14.80;;;12.90;;
27612;SDS011;15036;48.094;-1.690;2023-05-14T13:24:34;16.30;;;14.68;;
27612;SDS011;15036;48.094;-1.690;2023-05-14T13:26:59;14.73;;;13.20;;
27612;SDS011;15036;48.094;-1.690;2023-05-14T13:29:25;14.30;;;12.88;;
27612;SDS011;15036;48.094;-1.690;2023-05-14T13:31:53;14.55;;;12.52;;
27612;SDS011;15036;48.094;-1.690;2023-05-14T13:34:18;13.80;;;12.32;;
27612;SDS011;15036;48.094;-1.690;2023-05-14T13:36:44;13.38;;;11.23;;
27612;SDS011;15036;48.094;-1.690;2023-05-14T13:39:10;12.88;;;11.02;;
27612;SDS011;15036;48.094;-1.690;2023-05-14T13:41:36;12.75;;;11.45;;
27612;SDS011;15036;48.094;-1.690;2023-05-14T13:44:02;12.07;;;10.82;;
27612;SDS011;15036;48.094;-1.690;2023-05-14T13:46:28;11.40;;;10.30;;
27612;SDS011;15036;48.094;-1.690;2023-05-14T13:48:55;13.15;;;11.35;;
27612;SDS011;15036;48.094;-1.690;2023-05-14T13:51:21;10.85;;;9.75;;
27612;SDS011;15036;48.094;-1.690;2023-05-14T13:53:47;10.98;;;9.98;;
27612;SDS011;15036;48.094;-1.690;2023-05-14T13:56:12;13.77;;;10.20;;
27612;SDS011;15036;48.094;-1.690;2023-05-14T13:58:37;12.57;;;11.32;;
27612;SDS011;15036;48.094;-1.690;2023-05-14T14:01:03;12.15;;;10.93;;
27612;SDS011;15036;48.094;-1.690;2023-05-14T14:03:28;11.80;;;10.20;;
27612;SDS011;15036;48.094;-1.690;2023-05-14T14:05:55;11.02;;;9.35;;
27612;SDS011;15036;48.094;-1.690;2023-05-14T14:08:20;10.95;;;9.30;;
27612;SDS011;15036;48.094;-1.690;2023-05-14T14:10:46;13.93;;;12.48;;
27612;SDS011;15036;48.094;-1.690;2023-05-14T14:13:11;12.70;;;11.50;;
27612;SDS011;15036;48.094;-1.690;2023-05-14T14:15:37;13.82;;;12.10;;
27612;SDS011;15036;48.094;-1.690;2023-05-14T14:18:02;13.07;;;9.40;;
27612;SDS011;15036;48.094;-1.690;2023-05-14T14:20:28;10.25;;;6.80;;
27612;SDS011;15036;48.094;-1.690;2023-05-14T14:22:53;8.95;;;7.00;;